createdAt,value
2023-06-10T00:00:57.085Z,20.30
2023-06-10T00:03:25.867Z,20.30
2023-06-10T00:05:55.444Z,20.30
2023-06-10T00:08:24.535Z,20.30
2023-06-10T00:10:54.279Z,20.20
2023-06-10T00:13:22.546Z,20.20
2023-06-10T00:15:51.433Z,20.10
2023-06-10T00:18:45.539Z,20.10
2023-06-10T00:21:14.640Z,20.00
2023-06-10T00:23:43.064Z,19.90
2023-06-10T00:26:12.918Z,19.90
2023-06-10T00:28:43.490Z,19.80
2023-06-10T00:31:14.231Z,19.80
2023-06-10T00:33:44.568Z,19.70
2023-06-10T00:36:12.772Z,19.70
2023-06-10T00:38:42.094Z,19.70
2023-06-10T00:41:16.624Z,19.60
2023-06-10T00:43:46.436Z,19.50
2023-06-10T00:46:18.505Z,19.50
2023-06-10T00:48:47.941Z,19.40
2023-06-10T00:51:16.310Z,19.40
2023-06-10T00:53:46.512Z,19.30
2023-06-10T00:56:16.817Z,19.30
2023-06-10T00:58:45.577Z,19.20
2023-06-10T01:01:14.716Z,19.20
2023-06-10T01:03:43.552Z,19.20
2023-06-10T01:06:21.192Z,19.20
2023-06-10T01:08:58.529Z,19.10
2023-06-10T01:11:34.008Z,19.00
2023-06-10T01:14:03.521Z,19.00
2023-06-10T01:16:31.941Z,18.90
2023-06-10T01:19:03.448Z,18.90
2023-06-10T01:21:35.034Z,18.80
2023-06-10T01:24:08.584Z,18.80
2023-06-10T01:26:38.553Z,18.70
2023-06-10T01:29:12.488Z,18.70
2023-06-10T01:31:47.589Z,18.70
2023-06-10T01:34:24.373Z,18.60
2023-06-10T01:36:56.428Z,18.60
2023-06-10T01:39:27.667Z,18.60
2023-06-10T01:42:00.561Z,18.50
2023-06-10T01:44:29.583Z,18.50
2023-06-10T01:46:57.827Z,18.50
2023-06-10T01:49:28.565Z,18.40
2023-06-10T01:52:00.544Z,18.40
2023-06-10T01:54:29.599Z,18.30
2023-06-10T01:56:57.944Z,18.30
2023-06-10T01:59:26.224Z,18.30
2023-06-10T02:01:54.368Z,18.20
2023-06-10T02:04:24.599Z,18.20
2023-06-10T02:06:54.470Z,18.20
2023-06-10T02:09:24.545Z,18.20
2023-06-10T02:11:52.856Z,18.20
2023-06-10T02:14:22.289Z,18.20
2023-06-10T02:16:56.369Z,18.10
2023-06-10T02:19:26.533Z,18.10
2023-06-10T02:21:56.507Z,18.00
2023-06-10T02:24:26.120Z,18.10
2023-06-10T02:26:55.592Z,18.00
2023-06-10T02:29:24.105Z,17.90
2023-06-10T02:31:54.557Z,17.90
2023-06-10T02:34:23.539Z,17.90
2023-06-10T02:36:52.495Z,17.90
2023-06-10T02:39:26.607Z,17.90
2023-06-10T02:41:55.590Z,17.90
2023-06-10T02:44:24.093Z,17.90
2023-06-10T02:46:56.404Z,17.90
2023-06-10T02:49:28.782Z,17.90
2023-06-10T02:52:00.655Z,17.90
2023-06-10T02:54:30.396Z,17.90
2023-06-10T02:56:59.678Z,17.80
2023-06-10T02:59:31.548Z,17.80
2023-06-10T03:02:02.418Z,17.90
2023-06-10T03:04:36.089Z,17.90
2023-06-10T03:07:11.656Z,17.90
2023-06-10T03:09:43.237Z,17.90
2023-06-10T03:12:15.589Z,17.90
2023-06-10T03:14:49.637Z,18.00
2023-06-10T03:17:20.217Z,18.00
2023-06-10T03:19:48.569Z,18.00
2023-06-10T03:22:18.472Z,18.00
2023-06-10T03:24:56.203Z,18.00
2023-06-10T03:27:25.620Z,18.00
2023-06-10T03:29:57.072Z,18.10
2023-06-10T03:32:25.534Z,18.10
2023-06-10T03:34:59.580Z,18.20
2023-06-10T03:37:32.442Z,18.20
2023-06-10T03:40:06.899Z,18.20
2023-06-10T03:42:37.175Z,18.20
2023-06-10T03:45:07.786Z,18.20
2023-06-10T03:47:38.302Z,18.30
2023-06-10T03:50:12.377Z,18.30
2023-06-10T03:52:42.804Z,18.30
2023-06-10T03:55:14.828Z,18.40
2023-06-10T03:57:47.057Z,18.50
2023-06-10T04:00:20.415Z,18.50
2023-06-10T04:02:51.799Z,18.50
2023-06-10T04:05:32.429Z,18.50
2023-06-10T04:08:03.596Z,18.60
2023-06-10T04:10:33.199Z,18.70
2023-06-10T04:13:04.443Z,18.70
2023-06-10T04:15:38.605Z,18.80
2023-06-10T04:18:11.649Z,18.80
2023-06-10T04:20:40.137Z,18.90
2023-06-10T04:23:08.770Z,19.00
2023-06-10T04:25:40.613Z,19.00
2023-06-10T04:28:08.998Z,19.10
2023-06-10T04:30:38.514Z,19.10
2023-06-10T04:33:10.508Z,19.20
2023-06-10T04:35:40.700Z,19.30
2023-06-10T04:38:11.017Z,19.30
2023-06-10T04:40:41.735Z,19.40
2023-06-10T04:43:11.005Z,19.40
2023-06-10T04:45:39.721Z,19.50
2023-06-10T04:48:09.767Z,19.50
2023-06-10T04:50:38.618Z,19.60
2023-06-10T04:53:08.665Z,19.70
2023-06-10T04:55:40.780Z,19.70
2023-06-10T04:58:16.182Z,19.70
2023-06-10T05:00:44.944Z,19.80
2023-06-10T05:03:13.805Z,19.90
2023-06-10T05:05:42.697Z,19.90
2023-06-10T05:08:10.884Z,19.90
2023-06-10T05:10:44.256Z,20.00
2023-06-10T05:13:12.452Z,20.00
2023-06-10T05:15:45.563Z,20.00
2023-06-10T05:18:14.213Z,20.00
2023-06-10T05:20:42.848Z,20.00
2023-06-10T05:23:12.763Z,20.00
2023-06-10T05:25:42.839Z,20.00
2023-06-10T05:28:13.564Z,20.00
2023-06-10T05:30:47.698Z,20.10
2023-06-10T05:33:16.712Z,20.20
2023-06-10T05:35:45.056Z,20.20
2023-06-10T05:38:17.816Z,20.20
2023-06-10T05:40:48.728Z,20.30
2023-06-10T05:43:17.827Z,20.30
2023-06-10T05:45:46.092Z,20.40
2023-06-10T05:48:14.747Z,20.50
2023-06-10T05:50:44.309Z,20.50
2023-06-10T05:53:16.712Z,20.60
2023-06-10T05:55:45.142Z,20.60
2023-06-10T05:58:16.760Z,20.60
2023-06-10T06:00:45.103Z,20.70
2023-06-10T06:03:14.648Z,20.70
2023-06-10T06:05:44.219Z,20.80
2023-06-10T06:08:14.483Z,21.00
2023-06-10T06:10:43.656Z,21.00
2023-06-10T06:13:11.769Z,21.10
2023-06-10T06:15:41.762Z,21.30
2023-06-10T06:18:12.592Z,21.30
2023-06-10T06:20:41.213Z,21.30
2023-06-10T06:23:11.191Z,21.40
2023-06-10T06:25:40.366Z,21.50
2023-06-10T06:28:12.857Z,21.50
2023-06-10T06:30:42.537Z,21.60
2023-06-10T06:33:11.014Z,21.70
2023-06-10T06:35:39.510Z,21.80
2023-06-10T06:38:07.849Z,21.90
2023-06-10T06:40:39.385Z,22.00
2023-06-10T06:43:10.267Z,22.20
2023-06-10T06:45:59.644Z,22.30
2023-06-10T06:48:31.711Z,22.30
2023-06-10T06:51:00.552Z,22.40
2023-06-10T06:53:31.684Z,22.50
2023-06-10T06:56:01.422Z,22.60
2023-06-10T06:58:32.421Z,22.70
2023-06-10T07:01:02.067Z,22.80
2023-06-10T07:03:30.260Z,22.80
2023-06-10T07:05:58.774Z,22.90
2023-06-10T07:08:27.000Z,22.90
2023-06-10T07:11:00.816Z,22.90
2023-06-10T07:13:29.072Z,22.90
2023-06-10T07:15:57.212Z,23.00
2023-06-10T07:18:26.828Z,23.00
2023-06-10T07:20:55.086Z,23.10
2023-06-10T07:23:23.345Z,23.10
2023-06-10T07:25:51.851Z,23.10
2023-06-10T07:28:20.121Z,23.20
2023-06-10T07:30:48.570Z,23.20
2023-06-10T07:33:17.739Z,23.30
2023-06-10T07:35:47.281Z,23.40
2023-06-10T07:38:15.563Z,23.50
2023-06-10T07:40:48.375Z,23.50
2023-06-10T07:43:16.655Z,23.60
2023-06-10T07:45:44.813Z,23.60
2023-06-10T07:48:14.243Z,23.70
2023-06-10T07:50:42.565Z,23.80
2023-06-10T07:53:12.300Z,23.80
2023-06-10T07:55:43.201Z,23.90
2023-06-10T07:58:11.730Z,24.00
2023-06-10T08:00:40.836Z,24.00
2023-06-10T08:03:10.304Z,24.10
2023-06-10T08:05:38.677Z,24.10
2023-06-10T08:08:07.760Z,24.10
2023-06-10T08:10:37.256Z,24.10
2023-06-10T08:13:05.797Z,24.00
2023-06-10T08:15:34.038Z,24.00
2023-06-10T08:18:02.439Z,24.00
2023-06-10T08:20:30.999Z,23.90
2023-06-10T08:22:59.313Z,24.00
2023-06-10T08:25:27.674Z,24.00
2023-06-10T08:28:03.658Z,24.00
2023-06-10T08:30:31.911Z,24.00
2023-06-10T08:33:00.317Z,23.90
2023-06-10T08:35:28.546Z,23.90
2023-06-10T08:38:00.921Z,23.90
2023-06-10T08:40:29.166Z,23.90
2023-06-10T08:43:08.170Z,23.90
2023-06-10T08:45:38.010Z,24.00
2023-06-10T08:48:08.594Z,24.10
2023-06-10T08:50:40.180Z,24.20
2023-06-10T08:53:14.348Z,24.20
2023-06-10T08:55:44.861Z,24.30
2023-06-10T08:58:15.793Z,24.40
2023-06-10T09:00:47.251Z,24.40
2023-06-10T09:03:15.954Z,24.50
2023-06-10T09:05:45.852Z,24.60
2023-06-10T09:08:14.415Z,24.70
2023-06-10T09:10:43.141Z,24.70
2023-06-10T09:13:13.658Z,24.80
2023-06-10T09:15:43.596Z,24.80
2023-06-10T09:18:12.174Z,24.80
2023-06-10T09:20:41.193Z,24.90
2023-06-10T09:23:09.595Z,24.90
2023-06-10T09:25:39.400Z,25.00
2023-06-10T09:28:16.441Z,25.10
2023-06-10T09:30:46.087Z,25.20
2023-06-10T09:33:18.825Z,25.10
2023-06-10T09:35:50.948Z,25.10
2023-06-10T09:38:25.920Z,25.10
2023-06-10T09:40:55.547Z,25.10
2023-06-10T09:43:24.266Z,25.00
2023-06-10T09:45:55.142Z,25.00
2023-06-10T09:48:24.987Z,25.00
2023-06-10T09:50:53.313Z,25.10
2023-06-10T09:53:22.828Z,25.10
2023-06-10T09:55:51.826Z,25.20
2023-06-10T09:58:20.237Z,25.20
2023-06-10T10:00:56.561Z,25.30
2023-06-10T10:03:25.097Z,25.40
2023-06-10T10:06:01.663Z,25.40
2023-06-10T10:08:30.224Z,25.40
2023-06-10T10:11:00.466Z,25.40
2023-06-10T10:13:30.370Z,25.40
2023-06-10T10:16:03.929Z,25.50
2023-06-10T10:18:34.012Z,25.50
2023-06-10T10:21:08.068Z,25.60
2023-06-10T10:23:42.171Z,25.60
2023-06-10T10:26:12.822Z,25.70
2023-06-10T10:28:49.443Z,25.70
2023-06-10T10:31:23.007Z,25.80
2023-06-10T10:33:58.240Z,25.80
2023-06-10T10:36:27.353Z,25.90
2023-06-10T10:38:56.410Z,26.10
2023-06-10T10:41:27.556Z,26.20
2023-06-10T10:43:57.076Z,26.30
2023-06-10T10:46:26.691Z,26.30
2023-06-10T10:48:58.882Z,26.30
2023-06-10T10:51:30.595Z,26.40
2023-06-10T10:54:16.015Z,26.50
2023-06-10T10:57:21.487Z,26.60
2023-06-10T10:59:57.942Z,26.80
2023-06-10T11:02:40.056Z,27.00
2023-06-10T11:05:10.450Z,27.10
2023-06-10T11:07:40.080Z,27.20
2023-06-10T11:10:11.277Z,27.40
2023-06-10T11:12:46.047Z,27.50
2023-06-10T11:15:14.559Z,27.50
2023-06-10T11:18:12.905Z,27.60
2023-06-10T11:21:01.572Z,27.70
2023-06-10T11:23:45.731Z,27.80
2023-06-10T11:26:34.022Z,27.80
2023-06-10T11:29:11.736Z,28.00
2023-06-10T11:31:49.451Z,28.10
2023-06-10T11:34:26.069Z,28.20
2023-06-10T11:36:57.216Z,28.20
2023-06-10T11:39:28.022Z,28.10
2023-06-10T11:41:57.163Z,28.20
2023-06-10T11:44:33.401Z,28.30
2023-06-10T11:47:01.581Z,28.50
2023-06-10T11:49:31.211Z,28.70
2023-06-10T11:51:59.551Z,28.90
2023-06-10T11:54:28.008Z,29.10
2023-06-10T11:57:01.385Z,29.20
2023-06-10T11:59:30.159Z,29.30
2023-06-10T12:01:59.045Z,29.30
2023-06-10T12:04:28.288Z,29.10
2023-06-10T12:06:58.006Z,29.10
2023-06-10T12:09:34.003Z,29.10
2023-06-10T12:12:04.429Z,29.30
2023-06-10T12:14:57.635Z,29.50
2023-06-10T12:17:38.738Z,29.70
2023-06-10T12:20:09.553Z,29.80
2023-06-10T12:22:46.170Z,30.00
2023-06-10T12:25:15.443Z,30.20
2023-06-10T12:27:54.920Z,30.30
2023-06-10T12:30:24.109Z,30.50
2023-06-10T12:32:53.621Z,30.50
2023-06-10T12:35:26.003Z,30.50
2023-06-10T12:38:00.635Z,30.60
2023-06-10T12:40:33.937Z,30.80
2023-06-10T12:43:03.248Z,30.90
2023-06-10T12:45:32.977Z,31.20
2023-06-10T12:48:10.275Z,31.40
2023-06-10T12:50:40.141Z,31.50
2023-06-10T12:53:15.023Z,31.70
2023-06-10T12:55:43.572Z,31.90
2023-06-10T12:58:12.429Z,32.10
2023-06-10T13:00:40.998Z,32.20
2023-06-10T13:03:10.502Z,32.40
2023-06-10T13:05:39.971Z,32.50
2023-06-10T13:08:12.069Z,32.70
2023-06-10T13:10:40.512Z,32.80
2023-06-10T13:13:12.030Z,32.90
2023-06-10T13:15:43.631Z,32.80
2023-06-10T13:18:13.383Z,32.90
2023-06-10T13:20:42.096Z,33.60
2023-06-10T13:23:11.931Z,34.70
2023-06-10T13:25:46.028Z,36.60
2023-06-10T13:28:14.983Z,38.70
2023-06-10T13:30:43.972Z,39.10
2023-06-10T13:33:12.301Z,40.40
2023-06-10T13:35:40.633Z,42.00
2023-06-10T13:38:09.314Z,43.70
2023-06-10T13:40:41.924Z,45.20
2023-06-10T13:43:11.046Z,46.50
2023-06-10T13:45:39.274Z,48.10
2023-06-10T13:48:08.192Z,49.40
2023-06-10T13:50:36.563Z,50.30
2023-06-10T13:53:05.999Z,51.20
2023-06-10T13:55:34.420Z,52.10
2023-06-10T13:58:04.134Z,53.00
2023-06-10T14:00:32.720Z,53.20
2023-06-10T14:03:03.428Z,53.60
2023-06-10T14:05:32.332Z,53.80
2023-06-10T14:08:02.396Z,53.60
2023-06-10T14:10:30.899Z,53.50
2023-06-10T14:12:59.264Z,53.00
2023-06-10T14:15:29.164Z,53.30
2023-06-10T14:17:57.390Z,53.50
2023-06-10T14:20:29.527Z,53.30
2023-06-10T14:22:57.888Z,52.00
2023-06-10T14:25:26.154Z,51.10
2023-06-10T14:27:54.496Z,50.90
2023-06-10T14:30:22.847Z,51.10
2023-06-10T14:32:52.608Z,50.70
2023-06-10T14:35:28.680Z,50.50
2023-06-10T14:37:57.027Z,50.80
2023-06-10T14:40:28.092Z,51.20
2023-06-10T14:42:56.289Z,52.00
2023-06-10T14:45:25.665Z,52.40
2023-06-10T14:47:57.179Z,52.50
2023-06-10T14:50:25.443Z,52.60
2023-06-10T14:52:53.955Z,52.80
2023-06-10T14:55:27.448Z,52.60
2023-06-10T14:57:59.302Z,52.20
2023-06-10T15:00:27.772Z,52.10
2023-06-10T15:02:59.129Z,52.10
2023-06-10T15:05:29.585Z,52.00
2023-06-10T15:07:57.897Z,51.60
2023-06-10T15:10:26.254Z,51.40
2023-06-10T15:12:57.449Z,51.30
2023-06-10T15:15:26.171Z,51.00
2023-06-10T15:18:01.472Z,50.90
2023-06-10T15:20:30.294Z,50.90
2023-06-10T15:22:58.879Z,51.10
2023-06-10T15:25:31.508Z,51.30
2023-06-10T15:28:00.353Z,51.30
2023-06-10T15:30:31.319Z,50.80
2023-06-10T15:33:02.858Z,50.50
2023-06-10T15:35:32.761Z,50.50
2023-06-10T15:38:01.063Z,50.60
2023-06-10T15:40:31.675Z,50.50
2023-06-10T15:43:05.864Z,50.70
2023-06-10T15:45:35.961Z,50.80
2023-06-10T15:48:07.532Z,50.70
2023-06-10T15:50:36.266Z,50.70
2023-06-10T15:53:04.616Z,50.60
2023-06-10T15:55:37.603Z,50.60
2023-06-10T15:58:08.889Z,50.30
2023-06-10T16:00:37.168Z,50.20
2023-06-10T16:03:09.670Z,48.80
2023-06-10T16:05:37.931Z,47.10
2023-06-10T16:08:06.765Z,46.10
2023-06-10T16:10:34.956Z,45.50
2023-06-10T16:13:04.078Z,45.00
2023-06-10T16:15:32.276Z,44.00
2023-06-10T16:18:00.563Z,42.70
2023-06-10T16:20:30.267Z,42.10
2023-06-10T16:22:58.448Z,41.90
2023-06-10T16:25:26.714Z,41.70
2023-06-10T16:27:54.866Z,42.00
2023-06-10T16:30:23.104Z,42.10
2023-06-10T16:32:51.594Z,42.60
2023-06-10T16:35:20.245Z,43.10
2023-06-10T16:37:49.944Z,43.00
2023-06-10T16:40:21.286Z,42.20
2023-06-10T16:42:49.604Z,40.90
2023-06-10T16:45:17.940Z,39.70
2023-06-10T16:47:46.455Z,38.40
2023-06-10T16:50:14.728Z,37.20
2023-06-10T16:52:43.279Z,36.30
2023-06-10T16:55:13.367Z,35.30
2023-06-10T16:57:42.026Z,34.80
2023-06-10T17:00:11.526Z,34.20
2023-06-10T17:02:39.919Z,33.60
2023-06-10T17:05:09.418Z,33.20
2023-06-10T17:07:37.951Z,32.70
2023-06-10T17:10:09.451Z,32.30
2023-06-10T17:12:39.165Z,31.90
2023-06-10T17:15:09.164Z,31.50
2023-06-10T17:17:41.099Z,31.10
2023-06-10T17:20:10.532Z,30.80
2023-06-10T17:22:40.407Z,30.40
2023-06-10T17:25:09.528Z,30.10
2023-06-10T17:27:39.233Z,29.80
2023-06-10T17:30:08.878Z,29.40
2023-06-10T17:32:38.414Z,29.00
2023-06-10T17:35:07.293Z,28.80
2023-06-10T17:37:35.652Z,28.50
2023-06-10T17:40:04.016Z,28.40
2023-06-10T17:42:32.301Z,28.20
2023-06-10T17:45:05.563Z,27.90
2023-06-10T17:47:35.576Z,27.80
2023-06-10T17:50:03.958Z,27.70
2023-06-10T17:52:32.200Z,27.40
2023-06-10T17:55:02.055Z,27.40
2023-06-10T17:57:33.402Z,27.20
2023-06-10T18:00:02.993Z,27.10
2023-06-10T18:02:36.576Z,27.00
2023-06-10T18:05:10.040Z,26.90
2023-06-10T18:07:38.820Z,26.70
2023-06-10T18:10:08.174Z,26.60
2023-06-10T18:12:37.266Z,26.50
2023-06-10T18:15:09.671Z,26.40
2023-06-10T18:17:38.262Z,26.30
2023-06-10T18:20:07.409Z,26.10
2023-06-10T18:22:37.260Z,26.10
2023-06-10T18:25:06.390Z,26.00
2023-06-10T18:27:38.304Z,25.90
2023-06-10T18:30:10.412Z,25.80
2023-06-10T18:32:40.034Z,25.70
2023-06-10T18:35:09.012Z,25.60
2023-06-10T18:37:42.281Z,25.40
2023-06-10T18:40:11.538Z,25.30
2023-06-10T18:42:40.159Z,25.20
2023-06-10T18:45:11.641Z,25.00
2023-06-10T18:47:56.809Z,24.90
2023-06-10T18:50:26.273Z,24.80
2023-06-10T18:52:55.238Z,24.60
2023-06-10T18:55:24.273Z,24.40
2023-06-10T18:57:52.590Z,24.30
2023-06-10T19:00:22.522Z,24.20
2023-06-10T19:02:50.990Z,24.10
2023-06-10T19:05:20.312Z,24.00
2023-06-10T19:07:48.441Z,23.80
2023-06-10T19:10:16.959Z,23.70
2023-06-10T19:12:47.307Z,23.60
2023-06-10T19:15:16.913Z,23.60
2023-06-10T19:17:47.811Z,23.50
2023-06-10T19:20:16.043Z,23.50
2023-06-10T19:22:45.322Z,23.40
2023-06-10T19:25:13.907Z,23.40
2023-06-10T19:27:42.294Z,23.30
2023-06-10T19:30:14.094Z,23.20
2023-06-10T19:32:43.069Z,23.10
2023-06-10T19:35:13.312Z,23.00
2023-06-10T19:37:41.538Z,23.00
2023-06-10T19:40:14.391Z,22.90
2023-06-10T19:42:42.712Z,22.80
2023-06-10T19:45:11.858Z,22.80
2023-06-10T19:47:40.537Z,22.70
2023-06-10T19:50:09.822Z,22.60
2023-06-10T19:52:41.554Z,22.50
2023-06-10T19:55:10.955Z,22.40
2023-06-10T19:57:39.617Z,22.30
2023-06-10T20:00:10.047Z,22.20
2023-06-10T20:02:43.284Z,22.10
2023-06-10T20:05:11.787Z,22.00
2023-06-10T20:07:41.772Z,22.00
2023-06-10T20:10:11.316Z,21.90
2023-06-10T20:12:39.574Z,21.80
2023-06-10T20:15:10.142Z,21.70
2023-06-10T20:17:39.336Z,21.60
2023-06-10T20:20:08.600Z,21.50
2023-06-10T20:22:36.895Z,21.40
2023-06-10T20:25:07.233Z,21.30
2023-06-10T20:27:36.302Z,21.30
2023-06-10T20:30:04.799Z,21.20
2023-06-10T20:32:36.615Z,21.10
2023-06-10T20:35:05.134Z,21.10
2023-06-10T20:37:33.334Z,21.00
2023-06-10T20:40:01.640Z,21.00
2023-06-10T20:42:31.306Z,20.90
2023-06-10T20:45:00.794Z,20.80
2023-06-10T20:47:28.989Z,20.70
2023-06-10T20:49:57.476Z,20.70
2023-06-10T20:52:25.713Z,20.60
2023-06-10T20:54:54.168Z,20.60
2023-06-10T20:57:22.892Z,20.50
2023-06-10T20:59:52.662Z,20.40
2023-06-10T21:02:23.335Z,20.40
2023-06-10T21:04:52.801Z,20.30
2023-06-10T21:07:20.952Z,20.30
2023-06-10T21:09:49.145Z,20.30
2023-06-10T21:12:17.453Z,20.20
2023-06-10T21:14:45.706Z,20.20
2023-06-10T21:17:21.157Z,20.20
2023-06-10T21:19:50.615Z,20.10
2023-06-10T21:22:18.954Z,20.00
2023-06-10T21:24:47.395Z,20.00
2023-06-10T21:27:19.479Z,20.00
2023-06-10T21:29:48.940Z,19.90
2023-06-10T21:32:22.901Z,19.90
2023-06-10T21:34:56.797Z,19.80
2023-06-10T21:37:24.916Z,19.80
2023-06-10T21:39:54.350Z,19.80
2023-06-10T21:42:22.655Z,19.80
2023-06-10T21:44:52.106Z,19.70
2023-06-10T21:47:26.438Z,19.70
2023-06-10T21:49:55.011Z,19.70
2023-06-10T21:52:23.224Z,19.60
2023-06-10T21:54:53.337Z,19.60
2023-06-10T21:57:28.652Z,19.50
2023-06-10T22:00:02.152Z,19.50
2023-06-10T22:02:34.492Z,19.50
2023-06-10T22:05:03.311Z,19.50
2023-06-10T22:07:31.747Z,19.40
2023-06-10T22:10:02.519Z,19.40
2023-06-10T22:12:33.343Z,19.30
2023-06-10T22:15:01.508Z,19.30
2023-06-10T22:17:30.312Z,19.20
2023-06-10T22:20:06.518Z,19.20
2023-06-10T22:22:34.927Z,19.20
2023-06-10T22:25:04.291Z,19.20
2023-06-10T22:27:32.488Z,19.10
2023-06-10T22:30:01.892Z,19.10
2023-06-10T22:32:33.546Z,19.10
2023-06-10T22:35:07.069Z,19.10
2023-06-10T22:37:36.589Z,19.00
2023-06-10T22:40:06.347Z,19.00
2023-06-10T22:42:35.248Z,19.00
2023-06-10T22:45:03.474Z,19.00
2023-06-10T22:47:36.552Z,19.00
2023-06-10T22:50:07.120Z,19.10
2023-06-10T22:52:37.401Z,19.20
2023-06-10T22:55:06.562Z,19.20
2023-06-10T22:57:34.726Z,19.10
2023-06-10T23:00:04.279Z,19.10
2023-06-10T23:02:32.525Z,19.10
2023-06-10T23:05:06.523Z,19.10
2023-06-10T23:07:34.945Z,19.10
2023-06-10T23:10:03.216Z,19.20
2023-06-10T23:12:31.948Z,19.20
2023-06-10T23:15:00.081Z,19.10
2023-06-10T23:17:32.528Z,19.10
2023-06-10T23:20:02.718Z,19.00
2023-06-10T23:22:33.095Z,19.00
2023-06-10T23:25:03.808Z,18.90
2023-06-10T23:27:33.520Z,18.80
2023-06-10T23:30:02.425Z,18.80
2023-06-10T23:32:30.924Z,18.70
2023-06-10T23:35:00.509Z,18.60
2023-06-10T23:37:29.278Z,18.60
2023-06-10T23:40:02.478Z,18.50
2023-06-10T23:42:31.365Z,18.40
2023-06-10T23:45:04.440Z,18.30
2023-06-10T23:47:32.837Z,18.30
2023-06-10T23:50:01.151Z,18.20
2023-06-10T23:52:30.414Z,18.10
2023-06-10T23:55:00.447Z,18.10
2023-06-10T23:57:31.356Z,18.10
2023-06-10T23:59:59.520Z,18.00
